createdAt,value
2017-07-28T00:00:34.239Z,0
2017-07-28T00:01:36.262Z,0
2017-07-28T00:02:38.636Z,0
2017-07-28T00:03:40.994Z,0
2017-07-28T00:04:43.018Z,0
2017-07-28T00:05:45.034Z,0
2017-07-28T00:06:47.064Z,0
2017-07-28T00:07:49.089Z,0
2017-07-28T00:08:51.104Z,0
2017-07-28T00:09:53.818Z,0
2017-07-28T00:10:55.839Z,0
2017-07-28T00:11:57.853Z,0
2017-07-28T00:13:00.218Z,0
2017-07-28T00:14:02.929Z,0
2017-07-28T00:15:04.960Z,0
2017-07-28T00:16:06.985Z,0
2017-07-28T00:17:09.335Z,0
2017-07-28T00:18:11.699Z,0
2017-07-28T00:19:13.736Z,0
2017-07-28T00:20:15.759Z,0
2017-07-28T00:21:18.138Z,0
2017-07-28T00:22:20.171Z,0
2017-07-28T00:23:22.547Z,0
2017-07-28T00:24:24.567Z,0
2017-07-28T00:25:26.595Z,0
2017-07-28T00:26:28.957Z,0
2017-07-28T00:27:31.336Z,0
2017-07-28T00:28:33.351Z,0
2017-07-28T00:29:35.709Z,0
2017-07-28T00:30:38.081Z,0
2017-07-28T00:31:40.100Z,0
2017-07-28T00:32:42.132Z,0
2017-07-28T00:33:44.496Z,0
2017-07-28T00:34:46.527Z,0
2017-07-28T00:35:48.550Z,0
2017-07-28T00:36:50.569Z,0
2017-07-28T00:37:52.601Z,0
2017-07-28T00:38:54.620Z,0
2017-07-28T00:39:56.991Z,0
2017-07-28T00:40:59.011Z,0
2017-07-28T00:42:01.026Z,0
2017-07-28T00:43:04.090Z,0
2017-07-28T00:44:06.114Z,0
2017-07-28T00:45:08.134Z,0
2017-07-28T00:46:10.506Z,0
2017-07-28T00:47:12.532Z,0
2017-07-28T00:48:14.562Z,0
2017-07-28T00:49:16.598Z,0
2017-07-28T00:50:18.619Z,0
2017-07-28T00:51:20.981Z,0
2017-07-28T00:52:22.998Z,0
2017-07-28T00:53:25.025Z,0
2017-07-28T00:54:27.405Z,0
2017-07-28T00:55:29.763Z,0
2017-07-28T00:56:31.793Z,0
2017-07-28T00:57:33.815Z,0
2017-07-28T00:58:36.172Z,0
2017-07-28T00:59:38.214Z,0
2017-07-28T01:00:40.230Z,0
2017-07-28T01:01:42.595Z,0
2017-07-28T01:02:44.617Z,0
2017-07-28T01:03:46.643Z,0
2017-07-28T01:04:49.357Z,0
2017-07-28T01:05:51.373Z,0
2017-07-28T01:06:53.399Z,0
2017-07-28T01:07:55.776Z,0
2017-07-28T01:08:57.795Z,0
2017-07-28T01:10:00.168Z,0
2017-07-28T01:11:02.193Z,0
2017-07-28T01:12:04.222Z,0
2017-07-28T01:13:06.578Z,0
2017-07-28T01:14:08.597Z,0
2017-07-28T01:15:10.618Z,0
2017-07-28T01:16:12.659Z,0
2017-07-28T01:17:14.676Z,0
2017-07-28T01:18:16.709Z,0
2017-07-28T01:19:19.080Z,0
2017-07-28T01:20:21.101Z,0
2017-07-28T01:21:23.123Z,0
2017-07-28T01:22:25.146Z,0
2017-07-28T01:23:27.173Z,0
2017-07-28T01:24:29.191Z,0
2017-07-28T01:25:31.225Z,0
2017-07-28T01:26:33.248Z,0
2017-07-28T01:27:35.609Z,0
2017-07-28T01:28:37.968Z,0
2017-07-28T01:29:39.992Z,0
2017-07-28T01:30:42.017Z,0
2017-07-28T01:31:44.376Z,0
2017-07-28T01:32:46.401Z,0
2017-07-28T01:33:49.093Z,0
2017-07-28T01:34:51.123Z,0
2017-07-28T01:35:53.476Z,0
2017-07-28T01:36:55.833Z,0
2017-07-28T01:37:57.851Z,0
2017-07-28T01:39:00.209Z,0
2017-07-28T01:40:02.241Z,0
2017-07-28T01:41:04.600Z,0
2017-07-28T01:42:06.965Z,0
2017-07-28T01:43:08.993Z,0
2017-07-28T01:44:11.014Z,0
2017-07-28T01:45:13.402Z,0
2017-07-28T01:46:15.444Z,0
2017-07-28T01:47:17.798Z,0
2017-07-28T01:48:19.824Z,0
2017-07-28T01:49:21.835Z,0
2017-07-28T01:50:23.858Z,0
2017-07-28T01:51:25.891Z,0
2017-07-28T01:52:27.907Z,0
2017-07-28T01:53:29.928Z,0
2017-07-28T01:54:31.951Z,0
2017-07-28T01:55:33.976Z,0
2017-07-28T01:56:35.993Z,0
2017-07-28T01:57:38.017Z,0
2017-07-28T01:58:40.386Z,0
2017-07-28T01:59:42.417Z,0
2017-07-28T02:00:44.436Z,0
2017-07-28T02:01:47.164Z,0
2017-07-28T02:02:49.533Z,0
2017-07-28T02:03:51.564Z,0
2017-07-28T02:04:53.596Z,0
2017-07-28T02:05:55.613Z,0
2017-07-28T02:06:57.988Z,0
2017-07-28T02:08:00.349Z,0
2017-07-28T02:09:03.389Z,0
2017-07-28T02:10:05.759Z,0
2017-07-28T02:11:08.146Z,0
2017-07-28T02:12:10.169Z,0
2017-07-28T02:13:12.186Z,0
2017-07-28T02:14:14.552Z,0
2017-07-28T02:15:16.589Z,0
2017-07-28T02:16:19.294Z,0
2017-07-28T02:17:21.315Z,0
2017-07-28T02:18:23.341Z,0
2017-07-28T02:19:25.698Z,0
2017-07-28T02:20:27.719Z,0
2017-07-28T02:21:29.746Z,0
2017-07-28T02:22:32.104Z,0
2017-07-28T02:23:34.131Z,0
2017-07-28T02:24:36.146Z,0
2017-07-28T02:25:38.170Z,0
2017-07-28T02:26:40.195Z,0
2017-07-28T02:27:42.223Z,0
2017-07-28T02:28:44.245Z,0
2017-07-28T02:29:46.264Z,0
2017-07-28T02:30:48.297Z,0
2017-07-28T02:31:50.654Z,0
2017-07-28T02:32:52.674Z,0
2017-07-28T02:33:55.049Z,0
2017-07-28T02:34:57.405Z,0
2017-07-28T02:35:59.767Z,0
2017-07-28T02:37:02.135Z,0
2017-07-28T02:38:04.518Z,0
2017-07-28T02:39:06.880Z,0
2017-07-28T02:40:09.277Z,0
2017-07-28T02:41:11.300Z,0
2017-07-28T02:42:13.326Z,0
2017-07-28T02:43:16.021Z,0
2017-07-28T02:44:18.392Z,4
2017-07-28T02:45:20.416Z,4
2017-07-28T02:46:22.429Z,4
2017-07-28T02:47:24.794Z,0
2017-07-28T02:48:27.146Z,4
2017-07-28T02:49:29.173Z,4
2017-07-28T02:50:31.864Z,4
2017-07-28T02:51:34.570Z,4
2017-07-28T02:52:36.598Z,8
2017-07-28T02:53:38.966Z,4
2017-07-28T02:54:41.318Z,8
2017-07-28T02:55:43.347Z,8
2017-07-28T02:56:45.359Z,8
2017-07-28T02:57:47.398Z,8
2017-07-28T02:58:49.764Z,12
2017-07-28T02:59:51.784Z,16
2017-07-28T03:00:53.806Z,16
2017-07-28T03:01:56.168Z,16
2017-07-28T03:02:58.178Z,16
2017-07-28T03:04:00.209Z,20
2017-07-28T03:05:02.233Z,20
2017-07-28T03:06:04.597Z,20
2017-07-28T03:07:06.618Z,24
2017-07-28T03:08:09.312Z,24
2017-07-28T03:09:11.684Z,24
2017-07-28T03:10:13.710Z,28
2017-07-28T03:11:15.733Z,32
2017-07-28T03:12:17.752Z,40
2017-07-28T03:13:19.774Z,48
2017-07-28T03:14:21.838Z,64
2017-07-28T03:15:23.859Z,76
2017-07-28T03:16:25.888Z,88
2017-07-28T03:17:27.917Z,88
2017-07-28T03:18:29.942Z,88
2017-07-28T03:19:32.299Z,76
2017-07-28T03:20:34.327Z,64
2017-07-28T03:21:36.345Z,52
2017-07-28T03:22:38.381Z,48
2017-07-28T03:23:40.404Z,56
2017-07-28T03:24:42.429Z,64
2017-07-28T03:25:45.130Z,88
2017-07-28T03:26:47.151Z,116
2017-07-28T03:27:49.178Z,156
2017-07-28T03:28:51.576Z,184
2017-07-28T03:29:53.939Z,196
2017-07-28T03:30:55.960Z,208
2017-07-28T03:31:58.328Z,220
2017-07-28T03:33:01.033Z,232
2017-07-28T03:34:03.049Z,236
2017-07-28T03:35:05.413Z,236
2017-07-28T03:36:08.115Z,240
2017-07-28T03:37:10.492Z,240
2017-07-28T03:38:12.506Z,236
2017-07-28T03:39:14.529Z,240
2017-07-28T03:40:16.918Z,252
2017-07-28T03:41:19.291Z,268
2017-07-28T03:42:21.652Z,264
2017-07-28T03:43:23.685Z,260
2017-07-28T03:44:25.707Z,272
2017-07-28T03:45:27.737Z,276
2017-07-28T03:46:29.764Z,276
2017-07-28T03:47:31.821Z,288
2017-07-28T03:48:34.518Z,340
2017-07-28T03:49:36.541Z,440
2017-07-28T03:50:38.569Z,552
2017-07-28T03:51:40.607Z,636
2017-07-28T03:52:43.002Z,692
2017-07-28T03:53:45.022Z,736
2017-07-28T03:54:47.046Z,764
2017-07-28T03:55:49.074Z,800
2017-07-28T03:56:51.097Z,820
2017-07-28T03:57:53.793Z,852
2017-07-28T03:58:56.155Z,912
2017-07-28T03:59:58.184Z,996
2017-07-28T04:01:00.908Z,1084
2017-07-28T04:02:03.276Z,1176
2017-07-28T04:03:05.311Z,1248
2017-07-28T04:04:07.678Z,1276
2017-07-28T04:05:10.065Z,1296
2017-07-28T04:06:12.091Z,1332
2017-07-28T04:07:14.806Z,1376
2017-07-28T04:08:17.166Z,1412
2017-07-28T04:09:19.534Z,1456
2017-07-28T04:10:21.906Z,1512
2017-07-28T04:11:23.923Z,1564
2017-07-28T04:12:26.291Z,1612
2017-07-28T04:13:29.009Z,1668
2017-07-28T04:14:31.036Z,1736
2017-07-28T04:15:33.396Z,1792
2017-07-28T04:16:35.424Z,1816
2017-07-28T04:17:37.456Z,1832
2017-07-28T04:18:39.470Z,1852
2017-07-28T04:19:41.493Z,1884
2017-07-28T04:20:43.862Z,1932
2017-07-28T04:21:46.219Z,1996
2017-07-28T04:22:48.252Z,2056
2017-07-28T04:23:50.616Z,2128
2017-07-28T04:24:53.313Z,2196
2017-07-28T04:25:55.343Z,2264
2017-07-28T04:26:57.718Z,2328
2017-07-28T04:27:59.754Z,2392
2017-07-28T04:29:02.139Z,2464
2017-07-28T04:30:04.492Z,2548
2017-07-28T04:31:06.853Z,2648
2017-07-28T04:32:08.884Z,2780
2017-07-28T04:33:10.905Z,2936
2017-07-28T04:34:12.936Z,3060
2017-07-28T04:35:14.964Z,3084
2017-07-28T04:36:17.331Z,3080
2017-07-28T04:37:19.375Z,3100
2017-07-28T04:38:21.399Z,3128
2017-07-28T04:39:23.771Z,3196
2017-07-28T04:40:26.132Z,3280
2017-07-28T04:41:28.176Z,3348
2017-07-28T04:42:30.205Z,3328
2017-07-28T04:43:32.572Z,3304
2017-07-28T04:44:34.603Z,3360
2017-07-28T04:45:36.629Z,3468
2017-07-28T04:46:38.662Z,3540
2017-07-28T04:47:40.683Z,3564
2017-07-28T04:48:42.740Z,3568
2017-07-28T04:49:45.104Z,3552
2017-07-28T04:50:47.132Z,3500
2017-07-28T04:51:49.151Z,3548
2017-07-28T04:52:51.185Z,3608
2017-07-28T04:53:53.206Z,3648
2017-07-28T04:55:08.003Z,3680
2017-07-28T04:56:10.030Z,3780
2017-07-28T04:57:12.065Z,3804
2017-07-28T04:58:14.089Z,3876
2017-07-28T04:59:16.449Z,3916
2017-07-28T05:00:18.820Z,3964
2017-07-28T05:01:20.853Z,4012
2017-07-28T05:02:23.228Z,4072
2017-07-28T05:03:25.262Z,4120
2017-07-28T05:04:27.296Z,4164
2017-07-28T05:05:29.686Z,4216
2017-07-28T05:06:31.710Z,4280
2017-07-28T05:07:33.730Z,4364
2017-07-28T05:08:35.763Z,4468
2017-07-28T05:09:37.819Z,4600
2017-07-28T05:10:40.178Z,4716
2017-07-28T05:11:42.544Z,4848
2017-07-28T05:12:44.567Z,5000
2017-07-28T05:13:46.929Z,5152
2017-07-28T05:14:48.970Z,5308
2017-07-28T05:15:51.980Z,5468
2017-07-28T05:16:54.010Z,5632
2017-07-28T05:17:56.367Z,5780
2017-07-28T05:18:58.397Z,5916
2017-07-28T05:20:00.771Z,6024
2017-07-28T05:21:02.811Z,6124
2017-07-28T05:22:04.834Z,6224
2017-07-28T05:23:06.868Z,6320
2017-07-28T05:24:08.892Z,6424
2017-07-28T05:25:10.919Z,6548
2017-07-28T05:26:12.949Z,6656
2017-07-28T05:27:14.968Z,6724
2017-07-28T05:28:17.001Z,6780
2017-07-28T05:29:20.036Z,6772
2017-07-28T05:30:22.409Z,6792
2017-07-28T05:31:24.434Z,6780
2017-07-28T05:32:26.464Z,6656
2017-07-28T05:33:28.477Z,6512
2017-07-28T05:34:30.852Z,6380
2017-07-28T05:35:32.886Z,6260
2017-07-28T05:36:35.254Z,6176
2017-07-28T05:37:37.287Z,6112
2017-07-28T05:38:39.307Z,6044
2017-07-28T05:39:41.667Z,5960
2017-07-28T05:40:43.693Z,5820
2017-07-28T05:41:45.705Z,5668
2017-07-28T05:42:47.732Z,5544
2017-07-28T05:43:49.756Z,5596
2017-07-28T05:44:52.128Z,5716
2017-07-28T05:45:54.147Z,5616
2017-07-28T05:46:56.173Z,5512
2017-07-28T05:47:58.216Z,5204
2017-07-28T05:49:00.597Z,5096
2017-07-28T05:50:02.967Z,5048
2017-07-28T05:51:05.337Z,4996
2017-07-28T05:52:07.355Z,4996
2017-07-28T05:53:10.069Z,5052
2017-07-28T05:54:12.091Z,5028
2017-07-28T05:55:14.123Z,4960
2017-07-28T05:56:16.512Z,5028
2017-07-28T05:57:18.881Z,4900
2017-07-28T05:58:21.596Z,4856
2017-07-28T05:59:23.732Z,4912
2017-07-28T06:00:25.763Z,4912
2017-07-28T06:01:28.480Z,4968
2017-07-28T06:02:31.191Z,4916
2017-07-28T06:03:33.425Z,4748
2017-07-28T06:04:35.678Z,4640
2017-07-28T06:05:38.055Z,4612
2017-07-28T06:06:40.083Z,4912
2017-07-28T06:07:42.096Z,4904
2017-07-28T06:08:44.399Z,4960
2017-07-28T06:09:46.423Z,5244
2017-07-28T06:10:49.120Z,5640
2017-07-28T06:11:51.486Z,5932
2017-07-28T06:12:53.518Z,6068
2017-07-28T06:13:55.549Z,6224
2017-07-28T06:14:57.564Z,6348
2017-07-28T06:15:59.589Z,6428
2017-07-28T06:17:01.972Z,6504
2017-07-28T06:18:04.004Z,6516
2017-07-28T06:19:06.028Z,6520
2017-07-28T06:20:08.400Z,6432
2017-07-28T06:21:10.432Z,6392
2017-07-28T06:22:12.467Z,6356
2017-07-28T06:23:14.834Z,6280
2017-07-28T06:24:16.870Z,6156
2017-07-28T06:25:18.906Z,6108
2017-07-28T06:26:20.925Z,5984
2017-07-28T06:27:22.959Z,5888
2017-07-28T06:28:26.014Z,5956
2017-07-28T06:29:28.722Z,5984
2017-07-28T06:30:30.752Z,6112
2017-07-28T06:31:33.467Z,6312
2017-07-28T06:32:35.837Z,6124
2017-07-28T06:33:37.850Z,5476
2017-07-28T06:34:39.884Z,5600
2017-07-28T06:35:41.928Z,5748
2017-07-28T06:36:43.955Z,5616
2017-07-28T06:37:45.995Z,5720
2017-07-28T06:38:48.691Z,5732
2017-07-28T06:39:50.715Z,5708
2017-07-28T06:40:53.104Z,5740
2017-07-28T06:41:55.468Z,5784
2017-07-28T06:42:57.831Z,5896
2017-07-28T06:43:59.856Z,5848
2017-07-28T06:45:02.283Z,5776
2017-07-28T06:46:04.652Z,5780
2017-07-28T06:47:06.691Z,5744
2017-07-28T06:48:08.726Z,5800
2017-07-28T06:49:10.754Z,5812
2017-07-28T06:50:12.777Z,5844
2017-07-28T06:51:14.802Z,5824
2017-07-28T06:52:17.172Z,5836
2017-07-28T06:53:19.194Z,5868
2017-07-28T06:54:21.217Z,5892
2017-07-28T06:55:23.584Z,5916
2017-07-28T06:56:25.614Z,5952
2017-07-28T06:57:27.979Z,5868
2017-07-28T06:58:30.343Z,5956
2017-07-28T06:59:32.382Z,6052
2017-07-28T07:00:34.406Z,6088
2017-07-28T07:01:36.439Z,6096
2017-07-28T07:02:38.802Z,6192
2017-07-28T07:03:41.167Z,6168
2017-07-28T07:04:43.559Z,6144
2017-07-28T07:05:45.915Z,6216
2017-07-28T07:06:48.292Z,6260
2017-07-28T07:07:50.663Z,6296
2017-07-28T07:08:52.689Z,6312
2017-07-28T07:09:54.717Z,6384
2017-07-28T07:10:56.748Z,6468
2017-07-28T07:11:58.781Z,6548
2017-07-28T07:13:00.802Z,6644
2017-07-28T07:14:03.176Z,6872
2017-07-28T07:15:05.892Z,7124
2017-07-28T07:16:08.334Z,6920
2017-07-28T07:17:10.364Z,6876
2017-07-28T07:18:12.397Z,6860
2017-07-28T07:19:14.423Z,6840
2017-07-28T07:20:16.790Z,6900
2017-07-28T07:21:18.823Z,6956
2017-07-28T07:22:20.857Z,7060
2017-07-28T07:23:22.898Z,7004
2017-07-28T07:24:25.266Z,7012
2017-07-28T07:25:27.290Z,7080
2017-07-28T07:26:29.322Z,7100
2017-07-28T07:27:32.086Z,7176
2017-07-28T07:28:34.464Z,7248
2017-07-28T07:29:36.487Z,7356
2017-07-28T07:30:38.518Z,7512
2017-07-28T07:31:40.540Z,7456
2017-07-28T07:32:42.567Z,7476
2017-07-28T07:33:45.281Z,7476
2017-07-28T07:34:47.308Z,7536
2017-07-28T07:35:49.363Z,7616
2017-07-28T07:36:51.491Z,7784
2017-07-28T07:37:54.206Z,7856
2017-07-28T07:38:56.913Z,7908
2017-07-28T07:39:58.939Z,8056
2017-07-28T07:41:00.977Z,8228
2017-07-28T07:42:03.019Z,8252
2017-07-28T07:43:05.049Z,8332
2017-07-28T07:44:07.070Z,8484
2017-07-28T07:45:09.122Z,8724
2017-07-28T07:46:11.491Z,8968
2017-07-28T07:47:13.528Z,9552
2017-07-28T07:48:15.553Z,10172
2017-07-28T07:49:17.599Z,11252
2017-07-28T07:50:19.644Z,12356
2017-07-28T07:51:22.035Z,14416
2017-07-28T07:52:24.395Z,15644
2017-07-28T07:53:26.773Z,19552
2017-07-28T07:54:28.798Z,17692
2017-07-28T07:55:31.178Z,15720
2017-07-28T07:56:33.209Z,13532
2017-07-28T07:57:35.590Z,12424
2017-07-28T07:58:37.964Z,15424
2017-07-28T07:59:39.988Z,15936
2017-07-28T08:00:42.370Z,15400
2017-07-28T08:01:44.397Z,15940
2017-07-28T08:02:46.434Z,17648
2017-07-28T08:03:48.472Z,16052
2017-07-28T08:04:50.506Z,14724
2017-07-28T08:05:52.881Z,17344
2017-07-28T08:06:55.247Z,19616
2017-07-28T08:07:57.618Z,18940
2017-07-28T08:08:59.983Z,18944
2017-07-28T08:10:02.012Z,13988
2017-07-28T08:11:05.074Z,11784
2017-07-28T08:12:07.444Z,12620
2017-07-28T08:13:09.473Z,14952
2017-07-28T08:14:11.510Z,19072
2017-07-28T08:15:13.884Z,19520
2017-07-28T08:16:15.926Z,15556
2017-07-28T08:17:17.962Z,16344
2017-07-28T08:18:20.660Z,20384
2017-07-28T08:19:22.691Z,23648
2017-07-28T08:20:24.715Z,28576
2017-07-28T08:21:27.087Z,25376
2017-07-28T08:22:29.124Z,19072
2017-07-28T08:23:31.496Z,15992
2017-07-28T08:24:33.524Z,14652
2017-07-28T08:25:35.889Z,12880
2017-07-28T08:26:37.926Z,12296
2017-07-28T08:27:40.630Z,10044
2017-07-28T08:28:42.663Z,11768
2017-07-28T08:29:44.705Z,30240
2017-07-28T08:30:46.737Z,26240
2017-07-28T08:31:48.765Z,29888
2017-07-28T08:32:50.798Z,36992
2017-07-28T08:33:53.515Z,44448
2017-07-28T08:34:55.548Z,44800
2017-07-28T08:35:57.585Z,46528
2017-07-28T08:36:59.609Z,15496
2017-07-28T08:38:01.984Z,17288
2017-07-28T08:39:04.025Z,15936
2017-07-28T08:40:06.057Z,14380
2017-07-28T08:41:08.425Z,14804
2017-07-28T08:42:10.461Z,12060
2017-07-28T08:43:12.495Z,10836
2017-07-28T08:44:15.199Z,12868
2017-07-28T08:45:17.225Z,17368
2017-07-28T08:46:19.283Z,110624
2017-07-28T08:47:21.314Z,117152
2017-07-28T08:48:23.680Z,31552
2017-07-28T08:49:25.718Z,22240
2017-07-28T08:50:27.747Z,24992
2017-07-28T08:51:29.780Z,13604
2017-07-28T08:52:32.151Z,14044
2017-07-28T08:53:34.521Z,13232
2017-07-28T08:54:36.564Z,12700
2017-07-28T08:55:38.580Z,15236
2017-07-28T08:56:40.611Z,21056
2017-07-28T08:57:43.002Z,101408
2017-07-28T08:58:45.038Z,106368
2017-07-28T08:59:47.075Z,101728
2017-07-28T09:00:49.108Z,92128
2017-07-28T09:01:51.141Z,92480
2017-07-28T09:02:53.177Z,93088
2017-07-28T09:03:55.542Z,102944
2017-07-28T09:04:57.641Z,117024
2017-07-28T09:06:00.017Z,86400
2017-07-28T09:07:02.053Z,100288
2017-07-28T09:08:04.091Z,98464
2017-07-28T09:09:06.121Z,98240
2017-07-28T09:10:08.171Z,103136
2017-07-28T09:11:10.559Z,104672
2017-07-28T09:12:12.594Z,109536
2017-07-28T09:13:14.638Z,115488
2017-07-28T09:14:17.030Z,118592
2017-07-28T09:15:19.064Z,112832
2017-07-28T09:16:21.794Z,107488
2017-07-28T09:17:24.511Z,117216
2017-07-28T09:18:26.552Z,116544
2017-07-28T09:19:28.579Z,111200
2017-07-28T09:20:30.625Z,111968
2017-07-28T09:21:33.337Z,119712
2017-07-28T09:22:35.715Z,126912
2017-07-28T09:23:38.438Z,124608
2017-07-28T09:24:40.812Z,123328
2017-07-28T09:25:42.861Z,90880
2017-07-28T09:26:45.255Z,114688
2017-07-28T09:27:47.616Z,116352
2017-07-28T09:28:50.677Z,115328
2017-07-28T09:29:52.713Z,123392
2017-07-28T09:30:55.077Z,23616
2017-07-28T09:31:57.453Z,19968
2017-07-28T09:32:59.825Z,22144
2017-07-28T09:34:02.193Z,20960
2017-07-28T09:35:04.246Z,125504
2017-07-28T09:36:07.308Z,128928
2017-07-28T09:37:09.375Z,131104
2017-07-28T09:38:11.404Z,122016
2017-07-28T09:39:13.450Z,130112
2017-07-28T09:40:16.182Z,28736
2017-07-28T09:41:18.228Z,22528
2017-07-28T09:42:20.628Z,26112
2017-07-28T09:43:22.669Z,31360
2017-07-28T09:44:24.701Z,124960
2017-07-28T09:45:26.740Z,121952
2017-07-28T09:46:29.078Z,117792
2017-07-28T09:47:31.114Z,125728
2017-07-28T09:48:33.148Z,44800
2017-07-28T09:49:35.187Z,81952
2017-07-28T09:50:37.263Z,116736
2017-07-28T09:51:39.299Z,127872
2017-07-28T09:52:41.677Z,134944
2017-07-28T09:53:44.064Z,123360
2017-07-28T09:54:46.440Z,133152
2017-07-28T09:55:48.473Z,141216
2017-07-28T09:56:50.514Z,134432
2017-07-28T09:57:53.257Z,127776
2017-07-28T09:58:55.299Z,107424
2017-07-28T09:59:57.325Z,117408
2017-07-28T10:00:59.709Z,149600
2017-07-28T10:02:01.748Z,138336
2017-07-28T10:03:04.129Z,119328
2017-07-28T10:04:06.172Z,30240
2017-07-28T10:05:08.206Z,21280
2017-07-28T10:06:10.587Z,24896
2017-07-28T10:07:12.623Z,140864
2017-07-28T10:08:14.657Z,135584
2017-07-28T10:09:16.714Z,124480
2017-07-28T10:10:18.749Z,129184
2017-07-28T10:11:20.784Z,131680
2017-07-28T10:12:23.170Z,157440
2017-07-28T10:13:25.556Z,133440
2017-07-28T10:14:27.927Z,91104
2017-07-28T10:15:30.307Z,77120
2017-07-28T10:16:32.354Z,79040
2017-07-28T10:17:34.395Z,50720
2017-07-28T10:18:36.782Z,53696
2017-07-28T10:19:38.826Z,51872
2017-07-28T10:20:40.870Z,56640
2017-07-28T10:21:42.908Z,54880
2017-07-28T10:22:44.944Z,73056
2017-07-28T10:23:47.000Z,42240
2017-07-28T10:24:49.045Z,40320
2017-07-28T10:25:51.093Z,51616
2017-07-28T10:26:53.135Z,47072
2017-07-28T10:27:55.177Z,72160
2017-07-28T10:28:57.562Z,130816
2017-07-28T10:29:59.946Z,167328
2017-07-28T10:31:01.996Z,98304
2017-07-28T10:32:04.373Z,101952
2017-07-28T10:33:06.405Z,69632
2017-07-28T10:34:08.451Z,99616
2017-07-28T10:35:10.473Z,45056
2017-07-28T10:36:12.850Z,44416
2017-07-28T10:37:14.893Z,42368
2017-07-28T10:38:16.930Z,41824
2017-07-28T10:39:19.304Z,40320
2017-07-28T10:40:21.357Z,40192
2017-07-28T10:41:23.731Z,117216
2017-07-28T10:42:25.793Z,49760
2017-07-28T10:43:27.828Z,41472
2017-07-28T10:44:29.880Z,45600
2017-07-28T10:45:31.951Z,31264
2017-07-28T10:46:34.321Z,27936
2017-07-28T10:47:36.685Z,26752
2017-07-28T10:48:38.719Z,26240
2017-07-28T10:49:40.757Z,25728
2017-07-28T10:50:43.136Z,25600
2017-07-28T10:51:45.507Z,27008
2017-07-28T10:52:47.889Z,32352
2017-07-28T10:53:49.928Z,38272
2017-07-28T10:54:51.965Z,41984
2017-07-28T10:55:54.002Z,45440
2017-07-28T10:56:56.057Z,50784
2017-07-28T10:57:58.092Z,62496
2017-07-28T10:59:00.465Z,87520
2017-07-28T11:00:02.505Z,58528
2017-07-28T11:01:04.896Z,146592
2017-07-28T11:02:07.268Z,139264
2017-07-28T11:03:09.986Z,75968
2017-07-28T11:04:12.021Z,80704
2017-07-28T11:05:14.050Z,71360
2017-07-28T11:06:16.094Z,57248
2017-07-28T11:07:18.134Z,70368
2017-07-28T11:08:20.171Z,73536
2017-07-28T11:09:22.217Z,72960
2017-07-28T11:10:24.248Z,54208
2017-07-28T11:11:26.286Z,45504
2017-07-28T11:12:28.662Z,41696
2017-07-28T11:13:30.697Z,37504
2017-07-28T11:14:32.767Z,35360
2017-07-28T11:15:34.792Z,34592
2017-07-28T11:16:36.836Z,33888
2017-07-28T11:17:39.219Z,32512
2017-07-28T11:18:41.256Z,30848
2017-07-28T11:19:43.288Z,30592
2017-07-28T11:20:46.344Z,32224
2017-07-28T11:21:48.384Z,35136
2017-07-28T11:22:50.405Z,43968
2017-07-28T11:23:52.781Z,37152
2017-07-28T11:24:55.156Z,36896
2017-07-28T11:25:57.190Z,41856
2017-07-28T11:26:59.582Z,40096
2017-07-28T11:28:01.951Z,38496
2017-07-28T11:29:04.323Z,38656
2017-07-28T11:30:06.707Z,38048
2017-07-28T11:31:08.748Z,35168
2017-07-28T11:32:10.788Z,29504
2017-07-28T11:33:13.160Z,25984
2017-07-28T11:34:15.197Z,23296
2017-07-28T11:35:17.244Z,21376
2017-07-28T11:36:19.661Z,20832
2017-07-28T11:37:22.055Z,21824
2017-07-28T11:38:24.442Z,24064
2017-07-28T11:39:26.472Z,27680
2017-07-28T11:40:28.505Z,32896
2017-07-28T11:41:30.534Z,39168
2017-07-28T11:42:32.909Z,49856
2017-07-28T11:43:34.944Z,56800
2017-07-28T11:44:37.329Z,53536
2017-07-28T11:45:39.365Z,48832
2017-07-28T11:46:41.738Z,49504
2017-07-28T11:47:43.769Z,54400
2017-07-28T11:48:45.797Z,58528
2017-07-28T11:49:48.186Z,115712
2017-07-28T11:50:50.235Z,133888
2017-07-28T11:51:52.276Z,137632
2017-07-28T11:52:54.317Z,133920
2017-07-28T11:53:56.348Z,135616
2017-07-28T11:54:58.380Z,138976
2017-07-28T11:56:00.757Z,129760
2017-07-28T11:57:02.791Z,122208
2017-07-28T11:58:05.512Z,116352
2017-07-28T11:59:07.551Z,101248
2017-07-28T12:00:09.932Z,103264
2017-07-28T12:01:11.963Z,116416
2017-07-28T12:02:14.001Z,124448
2017-07-28T12:03:16.044Z,135232
2017-07-28T12:04:18.416Z,141408
2017-07-28T12:05:20.797Z,142528
2017-07-28T12:06:23.168Z,133984
2017-07-28T12:07:25.203Z,122144
2017-07-28T12:08:27.580Z,117120
2017-07-28T12:09:29.639Z,120544
2017-07-28T12:10:32.141Z,122496
2017-07-28T12:11:34.176Z,130048
2017-07-28T12:12:36.894Z,136832
2017-07-28T12:13:38.939Z,124384
2017-07-28T12:14:41.713Z,118336
2017-07-28T12:15:44.427Z,120704
2017-07-28T12:16:46.812Z,119136
2017-07-28T12:17:48.855Z,117472
2017-07-28T12:18:51.234Z,121632
2017-07-28T12:19:53.275Z,115200
2017-07-28T12:20:55.666Z,106240
2017-07-28T12:21:57.705Z,100224
2017-07-28T12:23:00.088Z,106592
2017-07-28T12:24:02.119Z,108640
2017-07-28T12:25:04.513Z,109920
2017-07-28T12:26:06.916Z,119744
2017-07-28T12:27:08.956Z,132864
2017-07-28T12:28:11.331Z,105472
2017-07-28T12:29:13.712Z,59936
2017-07-28T12:30:16.456Z,29056
2017-07-28T12:31:18.833Z,22880
2017-07-28T12:32:20.872Z,19232
2017-07-28T12:33:23.268Z,16560
2017-07-28T12:34:25.299Z,15276
2017-07-28T12:35:27.346Z,14868
2017-07-28T12:36:29.385Z,14632
2017-07-28T12:37:31.429Z,13756
2017-07-28T12:38:33.463Z,12208
2017-07-28T12:39:35.849Z,11104
2017-07-28T12:40:38.255Z,11036
2017-07-28T12:41:40.301Z,11016
2017-07-28T12:42:42.334Z,10232
2017-07-28T12:43:44.697Z,8400
2017-07-28T12:44:46.734Z,6432
2017-07-28T12:45:49.127Z,4480
2017-07-28T12:46:51.515Z,2824
2017-07-28T12:47:53.901Z,2256
2017-07-28T12:48:55.941Z,2284
2017-07-28T12:49:57.977Z,2968
2017-07-28T12:51:00.349Z,4788
2017-07-28T12:52:03.403Z,6020
2017-07-28T12:53:05.448Z,8176
2017-07-28T12:54:07.483Z,10192
2017-07-28T12:55:09.516Z,12268
2017-07-28T12:56:11.564Z,14268
2017-07-28T12:57:13.591Z,15740
2017-07-28T12:58:15.624Z,16576
2017-07-28T12:59:17.666Z,17560
2017-07-28T13:00:19.733Z,18848
2017-07-28T13:01:22.438Z,19392
2017-07-28T13:02:25.141Z,20640
2017-07-28T13:03:27.189Z,25568
2017-07-28T13:04:29.221Z,50784
2017-07-28T13:05:31.263Z,34720
2017-07-28T13:06:33.635Z,33472
2017-07-28T13:07:36.365Z,31424
2017-07-28T13:08:38.392Z,29152
2017-07-28T13:09:40.758Z,24288
2017-07-28T13:10:42.794Z,16500
2017-07-28T13:11:45.174Z,8940
2017-07-28T13:12:47.538Z,5168
2017-07-28T13:13:49.571Z,4632
2017-07-28T13:14:52.275Z,5128
2017-07-28T13:15:54.318Z,5656
2017-07-28T13:16:56.341Z,5472
2017-07-28T13:17:58.372Z,5360
2017-07-28T13:19:00.762Z,5572
2017-07-28T13:20:03.477Z,6492
2017-07-28T13:21:05.855Z,7984
2017-07-28T13:22:08.232Z,9884
2017-07-28T13:23:10.268Z,12564
2017-07-28T13:24:12.649Z,15980
2017-07-28T13:25:15.006Z,19264
2017-07-28T13:26:17.052Z,21472
2017-07-28T13:27:19.086Z,22528
2017-07-28T13:28:21.101Z,22944
2017-07-28T13:29:23.472Z,22880
2017-07-28T13:30:25.512Z,22816
2017-07-28T13:31:27.538Z,23264
2017-07-28T13:32:29.574Z,24288
2017-07-28T13:33:31.598Z,25248
2017-07-28T13:34:33.964Z,26112
2017-07-28T13:35:36.377Z,26400
2017-07-28T13:36:38.420Z,26784
2017-07-28T13:37:40.451Z,26976
2017-07-28T13:38:42.484Z,26624
2017-07-28T13:39:44.512Z,25664
2017-07-28T13:40:46.877Z,24256
2017-07-28T13:41:48.908Z,22496
2017-07-28T13:42:51.273Z,21312
2017-07-28T13:43:53.304Z,20928
2017-07-28T13:44:55.666Z,20928
2017-07-28T13:45:58.046Z,20896
2017-07-28T13:47:00.086Z,20736
2017-07-28T13:48:02.117Z,20512
2017-07-28T13:49:04.485Z,19936
2017-07-28T13:50:06.511Z,19232
2017-07-28T13:51:08.881Z,18816
2017-07-28T13:52:11.257Z,19040
2017-07-28T13:53:13.365Z,20416
2017-07-28T13:54:16.073Z,21600